Latest Weather Observations for Centre Island

IDD60801

Issued at 10:01 pm CST Friday 22 May 2015 (issued every 30 minutes, with the page automatically refreshed every 10 minutes)

About weather observations | Map of weather stations | Latest weather observations for NT | Other Formats
Station Details ID: 014703 Name: CENTRE ISLAND Lat: -15.74 Lon: 136.82 Height: 12.2 m
Data from the previous 72 hours. | See also: Recent months at Centre Island
Date/Time
CST
Temp
°C
App
Temp
°C
Dew
Point
Rel
Hum
%
Delta-T
°C
Wind Press
QNH
hPa
Press
MSL
hPa
Rain
since 9 am
mm
Dir
 
Spd
km/h
Gust
km/h
Spd
kts
Gust
kts
22/10:00pm 23.9 21.8 18.1 70 3.6 SE 26 33 14 18 1018.1 1018.1 -
22/09:30pm 24.1 21.9 18.7 72 3.4 SE 28 37 15 20 1018.1 1018.1 -
22/09:00pm 24.3 21.1 18.2 68 3.8 ESE 32 35 17 19 1017.9 1017.9 -
22/08:30pm 24.3 22.3 18.2 68 3.8 ESE 26 33 14 18 1017.6 1017.6 -
22/08:00pm 24.2 22.2 17.4 65 4.2 ESE 24 28 13 15 1017.4 1017.4 -
22/07:30pm 24.0 23.2 17.0 65 4.3 ESE 17 22 9 12 1017.1 1017.1 -
22/07:00pm 24.0 22.5 16.8 64 4.4 E 20 24 11 13 1016.7 1016.7 -
22/06:30pm 24.1 22.1 16.4 62 4.7 E 22 28 12 15 1016.3 1016.3 -
22/06:00pm 24.3 22.2 16.3 61 4.9 E 22 28 12 15 1016.1 1016.1 -
22/05:30pm 25.0 23.2 15.9 57 5.5 E 20 24 11 13 1016.1 1016.1 -
22/04:00pm 26.9 24.6 15.6 50 6.9 ENE 22 28 12 15 1015.4 1015.4 0.0
22/03:30pm 27.2 24.7 15.2 47 7.3 E 22 28 12 15 1015.4 1015.4 0.0
22/03:00pm 27.7 24.9 15.4 47 7.5 E 24 30 13 16 1015.6 1015.6 0.0
22/02:30pm 27.5 25.4 15.2 47 7.5 E 20 28 11 15 1015.9 1015.9 0.0
22/02:00pm 27.9 25.0 15.2 46 7.7 E 24 30 13 16 1016.3 1016.3 0.0
22/01:30pm 28.2 25.8 14.4 42 8.3 E 20 26 11 14 1016.6 1016.6 0.0
22/01:00pm 28.1 26.1 15.4 46 7.8 E 20 28 11 15 1017.0 1017.0 0.0
22/12:30pm 27.8 24.4 14.8 45 7.8 E 26 32 14 17 1017.4 1017.4 0.0
22/12:00pm 27.5 23.5 14.2 44 7.9 ESE 28 33 15 18 1017.7 1017.7 0.0
22/11:30am 26.8 22.1 13.2 43 8.0 ESE 30 37 16 20 1018.2 1018.2 0.0
22/11:00am 26.8 22.1 14.2 46 7.5 ESE 32 37 17 20 1018.6 1018.6 0.0
22/10:30am 26.0 22.9 13.5 46 7.3 ESE 22 28 12 15 1018.9 1018.9 0.0
22/10:00am 25.8 23.0 12.6 44 7.6 SE 19 22 10 12 1019.2 1019.2 0.0
22/09:30am 25.2 22.3 12.4 45 7.3 SE 19 24 10 13 1019.4 1019.4 0.0
22/09:00am 24.8 22.2 13.7 50 6.5 SE 20 26 11 14 1019.3 1019.3 0.0
22/08:30am 24.3 21.0 12.9 49 6.6 SSE 22 30 12 16 1019.1 1019.1 0.0
22/08:00am 23.8 20.4 12.4 48 6.5 SSE 22 26 12 14 1018.9 1018.9 0.0
22/07:30am 23.4 19.4 13.0 52 6.0 SSE 26 32 14 17 1018.7 1018.7 0.0
22/07:00am 23.2 19.2 13.1 53 5.8 SSE 26 30 14 16 1018.3 1018.3 0.0
22/06:30am 23.3 19.5 13.5 54 5.7 SSE 26 32 14 17 1017.9 1017.9 0.0
22/06:00am 23.5 19.3 13.4 53 5.9 S 28 33 15 18 1017.6 1017.6 0.0
22/05:30am 23.9 19.3 13.4 51 6.1 S 30 35 16 19 1017.2 1017.2 0.0
22/05:00am 24.1 19.0 13.0 50 6.4 S 32 41 17 22 1017.0 1017.0 0.0
22/04:30am 24.1 19.3 14.5 55 5.7 SSE 33 39 18 21 1016.8 1016.8 0.0
22/04:00am 24.0 19.8 15.8 60 5.0 SSE 32 37 17 20 1016.7 1016.7 0.0
22/03:30am 24.3 20.3 16.3 61 4.9 SSE 32 37 17 20 1016.5 1016.5 0.0
22/03:00am 24.4 21.9 18.1 68 4.0 SSE 28 33 15 18 1016.6 1016.6 0.0
22/02:30am 24.6 23.8 20.1 76 2.9 SSE 24 30 13 16 1016.7 1016.7 0.0
22/02:00am 24.4 24.3 20.7 80 2.4 SSE 22 24 12 13 1016.7 1016.7 0.0
22/01:30am 24.2 23.6 21.3 84 1.9 S 26 30 14 16 1017.0 1017.0 0.0
22/01:00am 24.3 25.7 22.6 90 1.1 SSE 19 28 10 15 1017.1 1017.1 0.0
22/12:30am 24.1 27.4 22.5 91 1.1 SSE 9 11 5 6 1016.8 1016.8 0.0
22/12:00am 24.1 27.9 22.4 90 1.1 S 6 9 3 5 1016.8 1016.8 0.0
 
Date/Time
CST
Temp
°C
App
Temp
°C
Dew
Point
Rel
Hum
%
Delta-T
°C
Wind Press
QNH
hPa
Press
MSL
hPa
Rain
since 9 am
mm
Dir
 
Spd
km/h
Gust
km/h
Spd
kts
Gust
kts
21/11:30pm 24.3 27.3 22.6 90 1.1 SSE 11 13 6 7 1016.9 1016.9 0.0
21/11:00pm 24.5 26.5 22.9 91 1.1 SE 17 19 9 10 1017.1 1017.1 0.0
21/10:30pm 24.5 27.1 23.3 93 0.8 SE 15 17 8 9 1017.1 1017.1 0.0
21/10:00pm 24.3 26.6 22.7 91 1.1 ESE 15 17 8 9 1016.8 1016.8 0.0
21/09:30pm 24.2 27.7 22.8 92 0.9 ESE 9 11 5 6 1016.6 1016.6 0.0
21/09:00pm 24.5 28.1 23.1 92 0.9 SSE 9 13 5 7 1016.3 1016.3 0.0
21/08:30pm 24.7 28.6 22.9 90 1.2 N 7 9 4 5 1016.0 1016.0 0.0
21/08:00pm 24.9 28.5 23.1 90 1.2 N 9 11 5 6 1015.6 1015.6 0.0
21/07:30pm 25.0 28.7 23.2 90 1.2 NNE 9 13 5 7 1015.3 1015.3 0.0
21/07:00pm 25.1 28.4 23.2 89 1.3 NNE 11 15 6 8 1015.1 1015.1 0.0
21/06:30pm 25.3 28.2 23.2 88 1.4 NNE 13 19 7 10 1014.8 1014.8 0.0
21/06:00pm 25.6 28.1 23.1 86 1.7 NNE 15 20 8 11 1014.4 1014.4 0.0
21/05:30pm 26.2 28.3 23.1 83 2.1 NNE 17 22 9 12 1014.3 1014.3 0.0
21/05:00pm 26.7 28.7 23.0 80 2.5 NNE 17 22 9 12 1014.1 1014.1 0.0
21/04:30pm 27.2 28.7 23.0 78 2.9 NNE 20 26 11 14 1013.9 1013.9 0.0
21/04:00pm 27.8 28.9 23.0 75 3.3 NNE 22 28 12 15 1013.9 1013.9 0.0
21/03:30pm 28.4 28.7 22.2 69 4.2 NNE 24 32 13 17 1014.0 1014.0 0.0
21/03:00pm 28.6 28.7 21.9 67 4.5 NE 24 33 13 18 1014.1 1014.1 0.0
21/02:30pm 29.5 31.8 22.0 64 5.1 NNE 13 20 7 11 1014.3 1014.3 0.0
21/02:00pm 29.4 31.6 21.9 64 5.1 NE 13 17 7 9 1014.6 1014.6 0.0
21/01:30pm 31.7 34.1 20.0 50 7.7 ENE 7 11 4 6 1014.9 1014.9 0.0
21/01:00pm 30.2 32.7 21.0 58 6.1 NE 9 11 5 6 1015.4 1015.4 0.0
21/12:30pm 30.3 33.4 22.2 62 5.5 NE 9 11 5 6 1015.8 1015.8 0.0
21/12:00pm 28.9 32.2 21.9 66 4.7 NE 7 11 4 6 1016.1 1016.1 0.0
21/11:30am 28.3 31.2 20.6 63 5.1 WSW 6 7 3 4 1016.6 1016.6 0.0
21/11:00am 27.5 30.4 21.1 68 4.2 W 7 11 4 6 1016.9 1016.9 0.0
21/10:30am 26.1 29.6 22.2 79 2.6 WSW 7 9 4 5 1017.2 1017.2 0.0
21/10:00am 25.3 28.6 21.8 81 2.3 S 7 11 4 6 1017.6 1017.6 0.0
21/09:30am 24.9 28.6 22.6 87 1.5 SW 7 11 4 6 1017.3 1017.3 0.0
21/09:00am 23.9 27.3 22.7 93 0.8 SW 9 13 5 7 1017.1 1017.1 -
21/08:30am 23.6 26.6 22.6 94 0.7 WSW 11 13 6 7 1016.9 1016.9 -
21/08:00am 23.5 26.7 23.0 97 0.3 WSW 11 15 6 8 1016.6 1016.6 -
21/07:30am 23.5 27.6 23.2 98 0.2 SW 7 11 4 6 1016.4 1016.4 -
21/07:00am 23.3 27.2 23.0 98 0.2 SW 7 9 4 5 1015.9 1015.9 -
21/06:30am 23.3 28.1 22.8 97 0.3 SW 2 7 1 4 1015.5 1015.5 -
21/06:00am 23.2 26.5 22.5 96 0.5 SW 9 11 5 6 1015.2 1015.2 -
21/05:30am 23.4 27.2 22.7 96 0.5 SW 7 11 4 6 1014.9 1014.9 -
21/05:00am 23.3 27.0 22.6 96 0.5 SW 7 9 4 5 1014.8 1014.8 -
21/04:30am 23.1 26.8 22.3 95 0.5 SW 6 7 3 4 1014.6 1014.6 -
21/04:00am 23.1 27.1 22.1 94 0.7 WSW 4 7 2 4 1014.6 1014.6 -
21/03:30am 23.1 26.7 22.3 95 0.5 N 7 9 4 5 1014.5 1014.5 -
21/03:00am 22.9 26.4 21.9 94 0.7 N 6 7 3 4 1014.7 1014.7 0.0
21/02:30am 23.0 26.4 21.6 92 0.9 N 6 7 3 4 1015.0 1015.0 -
21/02:00am 23.2 26.8 22.0 93 0.8 N 6 6 3 3 1015.2 1015.2 -
21/01:30am 23.3 26.7 21.7 91 1.1 N 6 6 3 3 1015.5 1015.5 -
21/01:00am 23.3 27.1 21.7 91 1.1 N 4 6 2 3 1015.7 1015.7 -
21/12:30am 23.8 28.6 22.2 91 1.1 CALM 0 0 0 0 1015.8 1015.8 -
21/12:00am 24.1 27.9 22.4 90 1.1 NNE 6 6 3 3 1015.9 1015.9 -
 
Date/Time
CST
Temp
°C
App
Temp
°C
Dew
Point
Rel
Hum
%
Delta-T
°C
Wind Press
QNH
hPa
Press
MSL
hPa
Rain
since 9 am
mm
Dir
 
Spd
km/h
Gust
km/h
Spd
kts
Gust
kts
20/11:30pm 24.2 27.9 22.5 90 1.1 N 7 7 4 4 1015.9 1015.9 -
20/11:00pm 24.3 28.0 22.6 90 1.1 N 7 11 4 6 1016.1 1016.1 -
20/10:30pm 24.4 28.1 22.5 89 1.3 NNE 7 9 4 5 1016.0 1016.0 -
20/10:00pm 24.6 27.5 22.5 88 1.4 NNE 11 13 6 7 1015.9 1015.9 -
20/09:30pm 24.7 27.3 22.6 88 1.4 NNE 13 15 7 8 1015.9 1015.9 -
20/09:00pm 24.7 27.2 22.4 87 1.5 NNE 13 17 7 9 1015.8 1015.8 0.0
20/08:30pm 24.8 27.3 22.5 87 1.5 NNE 13 17 7 9 1015.7 1015.7 -
20/08:00pm 24.9 27.9 22.6 87 1.5 NNE 11 15 6 8 1015.3 1015.3 -
20/07:30pm 25.1 28.1 22.6 86 1.7 NNE 11 17 6 9 1015.0 1015.0 -
20/07:00pm 25.3 27.6 22.0 82 2.2 NNE 13 15 7 8 1014.6 1014.6 -
20/06:30pm 25.5 27.7 21.8 80 2.5 NNE 13 17 7 9 1014.4 1014.4 -
20/06:00pm 25.7 27.7 21.6 78 2.7 NNE 13 15 7 8 1014.3 1014.3 -
20/05:30pm 26.2 28.1 22.1 78 2.7 NNE 15 19 8 10 1014.0 1014.0 -
20/05:00pm 26.6 28.3 22.4 78 2.8 NE 17 20 9 11 1013.8 1013.8 -
20/04:30pm 27.1 28.5 22.5 76 3.1 NE 19 24 10 13 1013.7 1013.7 -
20/04:00pm 27.9 29.3 22.6 73 3.6 NE 19 28 10 15 1013.4 1013.4 -
20/03:30pm 28.4 30.2 22.6 71 3.9 NE 17 22 9 12 1013.3 1013.3 -
20/03:00pm 29.9 31.3 21.8 62 5.5 NNE 17 24 9 13 1013.3 1013.3 -
20/02:30pm 31.3 32.2 19.3 49 7.8 ENE 13 17 7 9 1013.4 1013.4 -
20/02:00pm 31.5 32.0 17.4 43 9.0 ENE 11 15 6 8 1013.5 1013.5 -
20/01:30pm 31.9 33.0 17.0 41 9.4 NNE 7 9 4 5 1013.9 1013.9 -
20/01:00pm 32.3 32.9 15.7 36 10.3 NNE 7 9 4 5 1014.5 1014.5 -
20/12:30pm 29.1 31.6 20.3 59 5.8 SE 7 9 4 5 1015.1 1015.1 -
20/11:30am 26.5 30.0 22.1 77 2.9 S 7 9 4 5 1015.9 1015.9 60.2
20/09:30am 23.0 25.9 21.8 93 0.8 SSW 9 11 5 6 1016.4 1016.4 0.0
20/09:00am 22.4 25.7 21.9 97 0.3 SW 7 11 4 6 1016.1 1016.1 -
20/08:30am 22.4 25.9 22.1 98 0.2 SSW 7 11 4 6 1015.9 1015.9 -
20/08:00am 22.3 25.4 22.1 99 0.1 S 9 13 5 7 1015.6 1015.6 -
20/07:30am 22.4 25.5 22.2 99 0.1 SW 9 11 5 6 1015.2 1015.2 -
20/07:00am 22.5 25.6 22.2 98 0.2 SW 9 11 5 6 1014.9 1014.9 -
20/06:30am 22.5 25.6 22.2 98 0.2 SW 9 11 5 6 1014.4 1014.4 -
20/06:00am 23.0 26.4 22.7 98 0.2 SW 9 13 5 7 1014.3 1014.3 -
20/05:30am 23.2 27.1 22.9 98 0.2 SW 7 9 4 5 1014.1 1014.1 -
20/05:00am 23.3 27.3 22.8 97 0.3 WSW 6 7 3 4 1013.9 1013.9 -
20/04:30am 22.9 26.6 22.2 96 0.5 WSW 6 7 3 4 1013.9 1013.9 -
20/04:00am 22.9 26.4 22.2 96 0.5 WSW 7 9 4 5 1013.9 1013.9 -
20/03:30am 22.8 26.2 22.0 95 0.5 WSW 7 7 4 4 1014.0 1014.0 -
20/03:00am 22.8 26.3 21.8 94 0.7 W 6 7 3 4 1013.9 1013.9 0.0
20/02:30am 22.6 26.6 21.4 93 0.8 NW 2 7 1 4 1013.9 1013.9 -
20/02:00am 22.6 26.9 21.1 91 1.0 CALM 0 0 0 0 1014.0 1014.0 -
20/01:30am 22.9 27.3 21.4 91 1.0 CALM 0 0 0 0 1014.4 1014.4 -
20/01:00am 23.1 26.8 21.4 90 1.1 N 4 6 2 3 1014.6 1014.6 -
20/12:30am 23.3 26.7 21.6 90 1.1 NNW 6 6 3 3 1014.7 1014.7 -
20/12:00am 23.6 26.9 21.9 90 1.1 N 7 7 4 4 1014.8 1014.8 -
 
Date/Time
CST
Temp
°C
App
Temp
°C
Dew
Point
Rel
Hum
%
Delta-T
°C
Wind Press
QNH
hPa
Press
MSL
hPa
Rain
since 9 am
mm
Dir
 
Spd
km/h
Gust
km/h
Spd
kts
Gust
kts
19/11:30pm 23.7 27.0 21.8 89 1.3 NNE 7 9 4 5 1014.8 1014.8 -
19/11:00pm 23.6 26.1 21.1 86 1.6 N 9 9 5 5 1014.9 1014.9 -
19/10:30pm 23.7 26.2 21.0 85 1.8 NNE 9 9 5 5 1014.9 1014.9 -

Other Formats:

Comma delimited format used in spreadsheet applications
http://www.bom.gov.au/fwo/IDD60801/IDD60801.94248.axf

JavaScript Object Notation format (JSON) in row-major order
http://www.bom.gov.au/fwo/IDD60801/IDD60801.94248.json